»·PEaware :: N912NB KSAC-KSBP

N912NB :: KSAC-KSBP

FLIGHT INFORMATION

Flight Status: Arrived
Operator: Privately registered:
United States
More flights under this callsign
Pilot: Patricio R. (14780)
Aircraft: BOEING 737-200
(B732)
More flights by this aircraft type
Origin: KSAC Sacramento Executive
United States
Destination: KSBP San Luis Co Regl
United States
More flights between these airports :: More routes between these airports
Route: SAC V334 SUNOL V301 PXN V113 PRB T329 MQO
File this flight plan on PilotEdge
Remarks:
Altitude:
(Current/Filed)
29,000ft
Speed:
(Current/Filed)
448kts
Departed: 28-Sep-18 06:13 PM
Arrived: 28-Sep-18 07:07 PM
Distance/Time
Traveled:
201nm/0:54
Distance/Time
To Go:
Arrived

Flight Plot

Page will automatically refresh every two minutes.

Flight plan parsing failed; only flown route is shown


Map Options




Map Legend


Flown Route
Filed Route
Departure Airport
Arrival Airport
Navaid (VOR, NDB)
Fix

Horizontal Profiles

Position Reports

Time Latitude Longitude Heading Altitude Ground
Speed
28-Sep-18 18:02 38.514818 -121.498328 226 29ft 0kts
28-Sep-18 18:03 38.514818 -121.498328 226 29ft 0kts
28-Sep-18 18:04 38.514818 -121.498328 226 29ft 0kts
28-Sep-18 18:05 38.514818 -121.498328 226 29ft 0kts
28-Sep-18 18:06 38.514818 -121.498328 226 29ft 0kts
28-Sep-18 18:07 38.514818 -121.498328 226 29ft 0kts
28-Sep-18 18:08 38.514818 -121.498328 226 29ft 0kts
28-Sep-18 18:09 38.514818 -121.498328 226 29ft 0kts
28-Sep-18 18:10 38.514818 -121.498328 226 29ft 0kts
28-Sep-18 18:11 38.514814 -121.498333 225 29ft 0kts
28-Sep-18 18:12 38.513727 -121.496441 121 28ft 12kts
28-Sep-18 18:13 38.515782 -121.493631 33 28ft 13kts
28-Sep-18 18:14 38.519220 -121.490601 82 29ft 5kts
28-Sep-18 18:15 38.514195 -121.493307 212 28ft 102kts
28-Sep-18 18:16 38.469383 -121.509226 165 2030ft 218kts
28-Sep-18 18:17 38.402233 -121.481402 163 3096ft 262kts
28-Sep-18 18:18 38.340889 -121.506189 223 6461ft 262kts
28-Sep-18 18:19 38.289505 -121.573925 223 9248ft 272kts
28-Sep-18 18:20 38.225656 -121.619981 193 11694ft 276kts
28-Sep-18 18:21 38.150491 -121.644578 192 13985ft 282kts
28-Sep-18 18:22 38.073944 -121.669061 192 16042ft 288kts
28-Sep-18 18:23 37.995859 -121.693488 192 17884ft 293kts
28-Sep-18 18:24 37.916437 -121.718412 192 19526ft 297kts
28-Sep-18 18:25 37.835916 -121.743461 192 21027ft 302kts
28-Sep-18 18:26 37.753658 -121.769135 193 22386ft 307kts
28-Sep-18 18:27 37.670661 -121.795219 193 23596ft 311kts
28-Sep-18 18:28 37.585699 -121.816430 173 24643ft 319kts
28-Sep-18 18:29 37.518357 -121.738961 137 25524ft 344kts
28-Sep-18 18:30 37.452881 -121.651211 141 26347ft 346kts
28-Sep-18 18:31 37.383472 -121.566013 142 27091ft 350kts
28-Sep-18 18:32 37.312756 -121.481208 143 27774ft 354kts
28-Sep-18 18:33 37.241056 -121.396092 143 28396ft 358kts
28-Sep-18 18:34 37.168311 -121.309892 144 28893ft 363kts
28-Sep-18 18:35 37.094104 -121.221848 144 28909ft 371kts
28-Sep-18 18:36 37.018736 -121.132911 143 28901ft 375kts
28-Sep-18 18:37 36.944219 -121.045309 142 26972ft 367kts
28-Sep-18 18:38 36.871030 -120.960119 142 25332ft 356kts
28-Sep-18 18:39 36.799448 -120.877052 141 23957ft 348kts
28-Sep-18 18:40 36.726290 -120.805479 158 23512ft 319kts
28-Sep-18 18:41 36.641239 -120.770359 169 21100ft 325kts
28-Sep-18 18:42 36.554601 -120.748298 171 19327ft 315kts
28-Sep-18 18:43 36.469180 -120.730109 172 17517ft 308kts
28-Sep-18 18:44 36.386059 -120.713328 172 15830ft 299kts
28-Sep-18 18:45 36.305387 -120.697358 172 14189ft 291kts
28-Sep-18 18:46 36.226337 -120.682037 171 12541ft 285kts
28-Sep-18 18:47 36.148533 -120.668224 176 11305ft 280kts
28-Sep-18 18:48 36.071509 -120.661554 176 10440ft 277kts
28-Sep-18 18:49 35.995111 -120.655065 176 9604ft 274kts
28-Sep-18 18:50 35.919586 -120.648421 176 8802ft 271kts
28-Sep-18 18:51 35.845433 -120.642161 176 8057ft 268kts
28-Sep-18 18:52 35.771192 -120.635635 176 7956ft 271kts
28-Sep-18 18:53 35.699395 -120.629462 176 7946ft 245kts
28-Sep-18 18:54 35.636718 -120.646607 222 7976ft 252kts
28-Sep-18 18:55 35.587112 -120.708118 221 7946ft 244kts
28-Sep-18 18:56 35.538976 -120.761854 219 7943ft 221kts
28-Sep-18 18:57 35.493051 -120.810578 219 6689ft 217kts
28-Sep-18 18:58 35.446866 -120.857280 219 5089ft 215kts
28-Sep-18 18:59 35.400085 -120.901714 219 3988ft 211kts
28-Sep-18 19:00 35.346282 -120.908223 132 4009ft 235kts
28-Sep-18 19:01 35.306947 -120.845930 128 3232ft 231kts
28-Sep-18 19:02 35.273152 -120.792467 128 2785ft 217kts
28-Sep-18 19:04 35.230226 -120.693570 97 1943ft 139kts
28-Sep-18 19:05 35.217316 -120.650027 121 1555ft 136kts
28-Sep-18 19:06 35.196854 -120.610506 68 1383ft 138kts
28-Sep-18 19:07 35.223611 -120.616366 303 791ft 123kts
28-Sep-18 19:08 35.240937 -120.647146 304 168ft 46kts
28-Sep-18 19:09 35.241492 -120.646200 123 170ft 14kts
28-Sep-18 19:10 35.239290 -120.642427 137 192ft 10kts
28-Sep-18 19:11 35.238413 -120.640817 84 198ft 4kts

Navigation Log

Ident Type
Flight plan parsing failed, navigation log unavailable